Terminal Aerodrome Forecast
Issued by NWS

Home | Current Version | Previous Version | Text Only | Print | Product List | Glossary On
Versions: 1 2 3 4 5 6 7 8 9 10 11 12 13 14 15
644
FTUS43 KLSX 120520
TAFSUS
TAF
KSUS 120520Z 1206/1306 32017G27KT P6SM OVC025
     FM121200 32013G21KT P6SM SCT030
     FM122300 29008KT P6SM FEW250
     FM130200 28004KT P6SM FEW200=

USA.gov is the U.S. government's official web portal to all federal, state and local government web resources and services.